Terminal Aerodrome Forecast
Issued by NWS

Home | Current Version | Previous Version | Text Only | Print | Product List | Glossary On
Versions: 1 2 3 4 5 6 7 8 9 10 11
748
FTUS45 KPIH 092320
TAFSUN
TAF
KSUN 092320Z 1000/1024 VRB05KT P6SM SKC
     FM100300 32011KT P6SM FEW180
     FM102000 15006KT P6SM SCT150
      AMD LTD TO CLD VIS AND WIND 1006/1014=

USA.gov is the U.S. government's official web portal to all federal, state and local government web resources and services.